Time;durP1;ratioP1;P1;durP2;ratioP2;P2;SDS_P1;SDS_P2;PMS_P1;PMS_P2;Temp;Humidity;BMP_temperature;BMP_pressure;BME280_temperature;BME280_humidity;BME280_pressure;Samples;Min_cycle;Max_cycle;Signal;HPM_P1;HPM_P2
2023/01/30 00:04:27;;;;;;;31.42;16.15;;;;;;;;;;10327492;28;20079;-77
2023/01/30 00:09:27;;;;;;;32.55;17.13;;;;;;;;;;10335577;28;20050;-78
2023/01/30 00:14:28;;;;;;;37.58;19.20;;;;;;;;;;10360020;28;20042;-76
2023/01/30 00:19:28;;;;;;;38.22;19.08;;;;;;;;;;10393964;28;20045;-78
2023/01/30 00:24:29;;;;;;;35.72;17.33;;;;;;;;;;10412742;28;20046;-76
2023/01/30 00:29:30;;;;;;;35.10;16.90;;;;;;;;;;10396585;28;20136;-79
2023/01/30 00:34:31;;;;;;;36.25;17.65;;;;;;;;;;10416984;28;20033;-76
2023/01/30 00:39:32;;;;;;;33.72;17.80;;;;;;;;;;10390378;28;20069;-76
2023/01/30 00:49:54;;;;;;;31.50;16.33;;;;;;;;;;10403643;28;20064;-78
2023/01/30 00:54:55;;;;;;;32.00;16.40;;;;;;;;;;10399963;28;20362;-77
2023/01/30 00:59:56;;;;;;;31.48;15.75;;;;;;;;;;10384003;28;20053;-76
2023/01/30 01:04:57;;;;;;;31.90;16.35;;;;;;;;;;10389033;28;20463;-75
2023/01/30 01:10:00;;;;;;;32.45;16.05;;;;;;;;;;10376700;28;20049;-79
2023/01/30 01:15:01;;;;;;;33.88;16.10;;;;;;;;;;10364524;28;20432;-75
2023/01/30 01:20:02;;;;;;;34.03;16.40;;;;;;;;;;10382816;28;20571;-77
2023/01/30 01:25:08;;;;;;;31.60;15.75;;;;;;;;;;10410960;28;20081;-78
2023/01/30 01:30:10;;;;;;;32.47;15.43;;;;;;;;;;10453139;28;20072;-78
2023/01/30 01:35:11;;;;;;;29.48;14.48;;;;;;;;;;10428093;28;20056;-78
2023/01/30 01:45:36;;;;;;;24.38;13.15;;;;;;;;;;10418853;28;20049;-76
2023/01/30 01:50:48;;;;;;;24.60;13.63;;;;;;;;;;10401954;28;20057;-76
2023/01/30 01:55:52;;;;;;;23.35;12.70;;;;;;;;;;10409459;28;20046;-77
2023/01/30 02:00:54;;;;;;;24.27;12.98;;;;;;;;;;10382255;28;20046;-76
2023/01/30 02:05:57;;;;;;;30.65;14.68;;;;;;;;;;10381225;28;20049;-78
2023/01/30 02:10:57;;;;;;;27.58;14.10;;;;;;;;;;10403662;28;20061;-76
2023/01/30 02:15:59;;;;;;;27.85;14.48;;;;;;;;;;10412178;28;20097;-77
2023/01/30 02:21:03;;;;;;;30.75;15.45;;;;;;;;;;10400806;28;20042;-78
2023/01/30 02:26:20;;;;;;;29.05;14.70;;;;;;;;;;10320232;28;20050;-76
2023/01/30 02:31:34;;;;;;;32.72;15.63;;;;;;;;;;10327731;28;20053;-79
2023/01/30 02:36:38;;;;;;;28.13;15.20;;;;;;;;;;10330143;28;20722;-80
2023/01/30 02:42:08;;;;;;;27.40;14.38;;;;;;;;;;10319198;28;20133;-77
2023/01/30 02:47:18;;;;;;;28.92;14.63;;;;;;;;;;10172936;29;20152;-76
2023/01/30 02:52:19;;;;;;;25.92;13.13;;;;;;;;;;10163095;28;20051;-76
2023/01/30 02:57:23;;;;;;;26.45;12.55;;;;;;;;;;10192043;28;20156;-75
2023/01/30 03:02:44;;;;;;;20.73;12.57;;;;;;;;;;10234039;28;20462;-79
2023/01/30 03:08:06;;;;;;;21.02;11.48;;;;;;;;;;10210319;28;20060;-78
2023/01/30 03:13:09;;;;;;;24.58;12.57;;;;;;;;;;10202244;28;20106;-77
2023/01/30 03:18:09;;;;;;;;;;;;;;;;;;10339269;28;20052;-76
2023/01/30 03:23:12;;;;;;;23.33;11.18;;;;;;;;;;10384560;28;19917;-77
2023/01/30 03:28:17;;;;;;;23.60;11.40;;;;;;;;;;10388014;28;20060;-77
2023/01/30 03:33:17;;;;;;;24.13;12.05;;;;;;;;;;10387162;28;20288;-76
2023/01/30 03:38:21;;;;;;;19.73;10.75;;;;;;;;;;10382785;28;20041;-77
2023/01/30 03:43:23;;;;;;;24.13;11.70;;;;;;;;;;10390091;28;20038;-79
2023/01/30 03:48:24;;;;;;;22.38;11.60;;;;;;;;;;10376765;28;20061;-76
2023/01/30 03:53:28;;;;;;;20.05;10.55;;;;;;;;;;10384762;28;20087;-77
2023/01/30 03:58:28;;;;;;;19.73;9.93;;;;;;;;;;10371228;28;20042;-81
2023/01/30 04:03:31;;;;;;;21.92;10.65;;;;;;;;;;10365824;28;20046;-78
2023/01/30 04:08:35;;;;;;;17.95;9.50;;;;;;;;;;10364863;28;20537;-77
2023/01/30 04:13:37;;;;;;;19.08;10.02;;;;;;;;;;10387086;28;20045;-79
2023/01/30 04:18:38;;;;;;;21.88;11.25;;;;;;;;;;10386497;28;20045;-77
2023/01/30 04:24:01;;;;;;;20.55;10.20;;;;;;;;;;10362001;28;20100;-78
2023/01/30 04:29:02;;;;;;;18.33;10.18;;;;;;;;;;10341930;28;20172;-77
2023/01/30 04:34:03;;;;;;;18.48;10.55;;;;;;;;;;10342044;28;20054;-80
2023/01/30 04:39:04;;;;;;;18.55;10.32;;;;;;;;;;10352593;28;20054;-76
2023/01/30 04:44:05;;;;;;;19.00;10.07;;;;;;;;;;10357483;28;20573;-79
2023/01/30 04:49:32;;;;;;;17.65;9.50;;;;;;;;;;10342319;28;20058;-77
2023/01/30 04:54:35;;;;;;;16.60;9.77;;;;;;;;;;10366043;28;20089;-78
2023/01/30 04:59:36;;;;;;;17.90;9.32;;;;;;;;;;10387197;28;20053;-80
2023/01/30 05:04:39;;;;;;;18.10;9.25;;;;;;;;;;10377730;28;20054;-75
2023/01/30 05:09:40;;;;;;;19.25;9.60;;;;;;;;;;10392407;28;20131;-78
2023/01/30 05:14:40;;;;;;;17.65;9.93;;;;;;;;;;10392074;28;20057;-76
2023/01/30 05:19:41;;;;;;;18.33;10.10;;;;;;;;;;10388952;28;20413;-75
2023/01/30 05:24:41;;;;;;;18.50;9.18;;;;;;;;;;10421151;28;20053;-77
2023/01/30 05:29:48;;;;;;;17.75;10.05;;;;;;;;;;10425959;28;20068;-77
2023/01/30 05:34:49;;;;;;;19.90;11.38;;;;;;;;;;10402839;28;20071;-77
2023/01/30 05:39:49;;;;;;;19.27;10.13;;;;;;;;;;10368517;28;20076;-75
2023/01/30 05:44:49;;;;;;;20.92;10.45;;;;;;;;;;10401488;28;20060;-80
2023/01/30 05:49:50;;;;;;;19.27;10.40;;;;;;;;;;10389802;28;20131;-76
2023/01/30 05:54:52;;;;;;;17.73;9.45;;;;;;;;;;10404601;28;20056;-77
2023/01/30 05:59:52;;;;;;;21.02;10.73;;;;;;;;;;10395417;28;20045;-75
2023/01/30 06:04:55;;;;;;;22.88;10.95;;;;;;;;;;10401015;28;20046;-77
2023/01/30 06:09:55;;;;;;;23.63;10.97;;;;;;;;;;10404354;28;20054;-77
2023/01/30 06:14:56;;;;;;;19.90;10.60;;;;;;;;;;10429394;28;20128;-77
2023/01/30 06:19:56;;;;;;;20.90;10.82;;;;;;;;;;10402049;28;20041;-77
2023/01/30 06:24:57;;;;;;;18.00;10.30;;;;;;;;;;10406304;28;20041;-77
2023/01/30 06:29:57;;;;;;;20.13;10.55;;;;;;;;;;10400525;28;20145;-78
2023/01/30 06:34:58;;;;;;;17.65;9.73;;;;;;;;;;10399013;28;20045;-78
2023/01/30 06:39:58;;;;;;;17.50;9.13;;;;;;;;;;10421427;28;20042;-75
2023/01/30 06:44:58;;;;;;;17.30;9.45;;;;;;;;;;10423941;28;20054;-80
2023/01/30 06:49:59;;;;;;;14.70;8.60;;;;;;;;;;10435733;28;20100;-86
2023/01/30 06:54:59;;;;;;;17.07;9.83;;;;;;;;;;10427944;28;20622;-77
2023/01/30 07:00:03;;;;;;;15.40;8.75;;;;;;;;;;10416000;28;20722;-75
2023/01/30 07:05:04;;;;;;;16.13;9.00;;;;;;;;;;10411684;28;20112;-77
2023/01/30 07:10:06;;;;;;;15.13;8.27;;;;;;;;;;10404128;28;20531;-79
2023/01/30 07:15:07;;;;;;;16.05;8.65;;;;;;;;;;10404484;28;20041;-77
2023/01/30 07:20:08;;;;;;;16.58;9.15;;;;;;;;;;10387991;28;20041;-74
2023/01/30 07:25:10;;;;;;;17.50;9.30;;;;;;;;;;10401288;28;20050;-76
2023/01/30 07:30:10;;;;;;;14.95;8.63;;;;;;;;;;10398511;28;20053;-77
2023/01/30 07:35:11;;;;;;;15.48;8.73;;;;;;;;;;10383013;28;20041;-76
2023/01/30 07:40:13;;;;;;;15.05;8.38;;;;;;;;;;10394296;28;20037;-77
2023/01/30 07:45:14;;;;;;;13.65;8.50;;;;;;;;;;10376998;28;20383;-79
2023/01/30 07:50:14;;;;;;;13.43;7.72;;;;;;;;;;10396011;28;20064;-77
2023/01/30 07:55:16;;;;;;;15.25;7.57;;;;;;;;;;10398963;28;20402;-77
2023/01/30 08:00:17;;;;;;;13.18;7.47;;;;;;;;;;10397969;28;20038;-77
2023/01/30 08:05:18;;;;;;;10.73;6.68;;;;;;;;;;10402274;28;20041;-78
2023/01/30 08:10:18;;;;;;;11.88;6.88;;;;;;;;;;10392554;28;20681;-79
2023/01/30 08:15:21;;;;;;;11.70;7.30;;;;;;;;;;10400996;28;20045;-76
2023/01/30 08:20:22;;;;;;;12.45;6.88;;;;;;;;;;10383458;28;20052;-76
2023/01/30 08:25:23;;;;;;;10.90;6.13;;;;;;;;;;10424807;28;20324;-82
2023/01/30 08:30:29;;;;;;;10.57;6.55;;;;;;;;;;10371617;28;20057;-80
2023/01/30 08:35:29;;;;;;;13.98;7.45;;;;;;;;;;10412342;28;20057;-80
2023/01/30 08:40:29;;;;;;;11.13;6.57;;;;;;;;;;10410141;28;20575;-81
2023/01/30 08:45:36;;;;;;;10.90;7.40;;;;;;;;;;10397354;28;20042;-82
2023/01/30 08:50:36;;;;;;;11.55;7.47;;;;;;;;;;10406546;28;20053;-81
2023/01/30 08:55:37;;;;;;;11.52;6.97;;;;;;;;;;10389512;28;20053;-81
2023/01/30 09:00:38;;;;;;;14.13;8.13;;;;;;;;;;10380532;28;20092;-80
2023/01/30 09:05:40;;;;;;;11.60;7.40;;;;;;;;;;10427920;28;20053;-81
2023/01/30 09:10:42;;;;;;;15.07;8.18;;;;;;;;;;10422220;28;20045;-81
2023/01/30 09:15:44;;;;;;;12.20;7.00;;;;;;;;;;10419010;28;20061;-82
2023/01/30 09:20:44;;;;;;;14.20;7.40;;;;;;;;;;10435126;28;20080;-81
2023/01/30 09:25:45;;;;;;;15.35;7.88;;;;;;;;;;10416386;28;20045;-79
2023/01/30 09:30:46;;;;;;;11.52;7.28;;;;;;;;;;10401538;28;20430;-79
2023/01/30 09:35:48;;;;;;;12.98;7.22;;;;;;;;;;10396662;28;20398;-79
2023/01/30 09:41:00;;;;;;;12.48;7.43;;;;;;;;;;10394881;28;20056;-81
2023/01/30 09:46:04;;;;;;;16.65;7.22;;;;;;;;;;10403720;28;20116;-80
2023/01/30 09:51:28;;;;;;;10.82;6.25;;;;;;;;;;10387421;28;20057;-80
2023/01/30 09:56:30;;;;;;;10.73;6.07;;;;;;;;;;10327408;28;20049;-81
2023/01/30 10:01:50;;;;;;;10.85;5.53;;;;;;;;;;10405481;28;20746;-80
2023/01/30 10:07:10;;;;;;;9.07;5.38;;;;;;;;;;10408062;28;20064;-80
2023/01/30 10:12:21;;;;;;;7.75;5.00;;;;;;;;;;10396579;28;20052;-81
2023/01/30 10:17:26;;;;;;;;;;;;;;;;;;10410906;28;20041;-80
2023/01/30 10:22:38;;;;;;;7.05;4.45;;;;;;;;;;10400234;28;20004;-79
2023/01/30 10:27:45;;;;;;;7.47;4.72;;;;;;;;;;10364814;28;20056;-79
2023/01/30 10:32:59;;;;;;;6.60;4.57;;;;;;;;;;10389913;28;20060;-80
2023/01/30 10:38:13;;;;;;;6.97;4.50;;;;;;;;;;10399187;28;20401;-81
2023/01/30 10:43:18;;;;;;;8.02;4.68;;;;;;;;;;10400717;28;20061;-81
2023/01/30 10:48:24;;;;;;;8.35;4.55;;;;;;;;;;10320838;28;20137;-79
2023/01/30 10:53:27;;;;;;;6.97;4.20;;;;;;;;;;10318701;28;20062;-79
2023/01/30 10:58:30;;;;;;;7.47;4.72;;;;;;;;;;10303518;28;20436;-80
2023/01/30 11:03:40;;;;;;;7.50;4.30;;;;;;;;;;10301281;28;20042;-79
2023/01/30 11:08:41;;;;;;;6.53;4.13;;;;;;;;;;10304727;28;20252;-80
2023/01/30 11:13:41;;;;;;;6.40;4.35;;;;;;;;;;10306520;28;20048;-80
2023/01/30 11:18:47;;;;;;;10.38;4.93;;;;;;;;;;10345674;28;20087;-78
2023/01/30 11:23:49;;;;;;;7.28;4.50;;;;;;;;;;10379924;28;20038;-79
2023/01/30 11:28:51;;;;;;;6.95;4.60;;;;;;;;;;10405274;28;20046;-78
2023/01/30 11:33:58;;;;;;;8.27;5.15;;;;;;;;;;10422206;28;20037;-81
2023/01/30 11:39:00;;;;;;;8.25;4.75;;;;;;;;;;10416770;28;20044;-81
2023/01/30 11:44:01;;;;;;;9.57;5.57;;;;;;;;;;10402450;28;20045;-80
2023/01/30 11:49:09;;;;;;;7.57;4.82;;;;;;;;;;10402930;28;20099;-81
2023/01/30 11:54:14;;;;;;;9.55;5.68;;;;;;;;;;10404227;28;20107;-80
2023/01/30 11:59:40;;;;;;;8.27;4.72;;;;;;;;;;10388518;28;20049;-81
2023/01/30 12:04:51;;;;;;;8.18;4.35;;;;;;;;;;10398949;28;20136;-80
2023/01/30 12:09:53;;;;;;;7.25;4.90;;;;;;;;;;10386104;28;20076;-84
2023/01/30 12:14:58;;;;;;;8.25;5.18;;;;;;;;;;10383856;28;20044;-80
2023/01/30 12:20:11;;;;;;;6.95;4.85;;;;;;;;;;10401995;28;20149;-82
2023/01/30 12:25:15;;;;;;;7.22;5.30;;;;;;;;;;10385136;28;20379;-79
2023/01/30 12:30:16;;;;;;;9.38;6.38;;;;;;;;;;10436527;28;20046;-81
2023/01/30 12:35:22;;;;;;;9.27;5.43;;;;;;;;;;10437767;28;20034;-81
2023/01/30 12:40:34;;;;;;;7.28;5.70;;;;;;;;;;10427549;28;20052;-80
2023/01/30 12:45:40;;;;;;;8.10;5.88;;;;;;;;;;10388458;28;20535;-79
2023/01/30 12:50:43;;;;;;;7.05;5.38;;;;;;;;;;10391874;28;20068;-81
2023/01/30 12:56:03;;;;;;;7.72;5.13;;;;;;;;;;10392252;28;20464;-79
2023/01/30 13:01:04;;;;;;;6.70;4.65;;;;;;;;;;10400511;28;20493;-80
2023/01/30 13:06:17;;;;;;;8.50;5.10;;;;;;;;;;10416002;28;20042;-81
2023/01/30 13:11:27;;;;;;;7.15;5.15;;;;;;;;;;10410183;28;20054;-83
2023/01/30 13:16:35;;;;;;;7.82;5.15;;;;;;;;;;10417732;28;20049;-81
2023/01/30 13:21:47;;;;;;;7.20;5.93;;;;;;;;;;10400867;28;20048;-79
2023/01/30 13:26:49;;;;;;;8.35;5.90;;;;;;;;;;10383124;28;20047;-79
2023/01/30 13:32:00;;;;;;;7.90;5.00;;;;;;;;;;10408214;28;20073;-80
2023/01/30 13:37:07;;;;;;;8.05;5.65;;;;;;;;;;10397591;28;20054;-79
2023/01/30 13:42:17;;;;;;;7.25;5.05;;;;;;;;;;10397006;28;20048;-80
2023/01/30 13:47:26;;;;;;;9.43;5.93;;;;;;;;;;10409681;28;20056;-80
2023/01/30 13:52:33;;;;;;;10.23;5.45;;;;;;;;;;10385375;28;20083;-80
2023/01/30 13:57:44;;;;;;;8.82;5.65;;;;;;;;;;10406041;28;20037;-81
2023/01/30 14:03:04;;;;;;;7.05;4.97;;;;;;;;;;10402149;28;20124;-79
2023/01/30 14:08:10;;;;;;;8.13;5.57;;;;;;;;;;10404161;28;20398;-80
2023/01/30 14:13:12;;;;;;;8.25;6.00;;;;;;;;;;10399535;28;20061;-82
2023/01/30 14:18:13;;;;;;;;;;;;;;;;;;10388913;28;20137;-78
2023/01/30 14:23:27;;;;;;;7.25;5.68;;;;;;;;;;10398336;28;19917;-77
2023/01/30 14:28:28;;;;;;;8.75;5.25;;;;;;;;;;10396575;28;20041;-81
2023/01/30 14:33:34;;;;;;;11.10;7.80;;;;;;;;;;10432852;28;20055;-75
2023/01/30 14:38:36;;;;;;;9.02;5.60;;;;;;;;;;10374693;28;20068;-76
2023/01/30 14:43:42;;;;;;;10.32;5.80;;;;;;;;;;10345138;28;20165;-79
2023/01/30 14:53:56;;;;;;;7.18;5.35;;;;;;;;;;10397800;28;20049;-76
2023/01/30 14:59:02;;;;;;;7.37;5.53;;;;;;;;;;10411658;28;20041;-78
2023/01/30 15:04:03;;;;;;;9.05;5.50;;;;;;;;;;10395468;28;20284;-78
2023/01/30 15:09:06;;;;;;;7.85;5.20;;;;;;;;;;10413085;28;20434;-78
2023/01/30 15:14:13;;;;;;;7.90;5.07;;;;;;;;;;10388763;28;20049;-77
2023/01/30 15:19:24;;;;;;;7.47;5.00;;;;;;;;;;10397284;28;20068;-77
2023/01/30 15:24:24;;;;;;;7.60;5.45;;;;;;;;;;10405316;28;20041;-78
2023/01/30 15:29:43;;;;;;;6.63;4.30;;;;;;;;;;10364695;28;20064;-77
2023/01/30 15:34:51;;;;;;;7.32;4.47;;;;;;;;;;10330811;28;20082;-78
2023/01/30 15:40:08;;;;;;;6.65;4.57;;;;;;;;;;10374447;28;20042;-77
2023/01/30 15:45:19;;;;;;;6.80;4.68;;;;;;;;;;10370194;28;20128;-76
2023/01/30 15:50:21;;;;;;;6.20;4.70;;;;;;;;;;10398249;28;20127;-77
2023/01/30 16:00:39;;;;;;;9.93;5.50;;;;;;;;;;10413763;28;20038;-79
2023/01/30 16:05:47;;;;;;;11.95;5.55;;;;;;;;;;10411543;28;20081;-76
2023/01/30 16:10:51;;;;;;;8.55;5.93;;;;;;;;;;10402252;28;20401;-78
2023/01/30 16:15:58;;;;;;;10.20;6.45;;;;;;;;;;10374201;28;20122;-75
2023/01/30 16:21:06;;;;;;;8.23;5.40;;;;;;;;;;10379067;28;20144;-77
2023/01/30 16:26:08;;;;;;;10.05;5.85;;;;;;;;;;10399515;28;20060;-77
2023/01/30 16:31:09;;;;;;;12.02;6.60;;;;;;;;;;10387164;28;20152;-75
2023/01/30 16:36:16;;;;;;;8.90;6.40;;;;;;;;;;10393677;28;20053;-77
2023/01/30 16:41:33;;;;;;;10.48;5.72;;;;;;;;;;10397431;28;20185;-77
2023/01/30 16:46:45;;;;;;;9.52;6.03;;;;;;;;;;10399380;28;20498;-77
2023/01/30 16:51:48;;;;;;;9.07;5.60;;;;;;;;;;10381137;28;20049;-77
2023/01/30 16:56:50;;;;;;;17.37;6.20;;;;;;;;;;10375526;28;20050;-77
2023/01/30 17:01:54;;;;;;;11.18;6.38;;;;;;;;;;10400902;28;20081;-76
2023/01/30 17:06:56;;;;;;;7.82;5.20;;;;;;;;;;10383405;28;20081;-74
2023/01/30 17:11:57;;;;;;;12.13;6.40;;;;;;;;;;10397648;28;20058;-80
2023/01/30 17:17:07;;;;;;;10.77;6.60;;;;;;;;;;10364848;28;20418;-77
2023/01/30 17:22:13;;;;;;;11.32;6.60;;;;;;;;;;10329314;28;20085;-75
2023/01/30 17:27:14;;;;;;;8.80;5.78;;;;;;;;;;10369717;28;20466;-76
2023/01/30 17:32:15;;;;;;;9.82;6.28;;;;;;;;;;10376374;28;20470;-77
2023/01/30 17:37:22;;;;;;;11.23;6.85;;;;;;;;;;10371968;28;20038;-76
2023/01/30 17:42:23;;;;;;;8.52;5.50;;;;;;;;;;10369489;28;20046;-78
2023/01/30 17:47:23;;;;;;;13.23;6.10;;;;;;;;;;10336362;28;20050;-78
2023/01/30 17:52:25;;;;;;;9.38;6.18;;;;;;;;;;10343216;28;20509;-76
2023/01/30 17:57:25;;;;;;;12.45;6.80;;;;;;;;;;10377962;28;20139;-75
2023/01/30 18:02:27;;;;;;;10.85;6.45;;;;;;;;;;10391070;28;20062;-80
2023/01/30 18:12:31;;;;;;;8.32;6.18;;;;;;;;;;10389173;28;20045;-75
2023/01/30 18:17:41;;;;;;;8.77;5.82;;;;;;;;;;10401641;28;20050;-76
2023/01/30 18:22:41;;;;;;;10.00;5.47;;;;;;;;;;10397561;28;20048;-76
2023/01/30 18:27:43;;;;;;;8.13;5.38;;;;;;;;;;10385640;28;20065;-78
2023/01/30 18:32:45;;;;;;;8.20;4.72;;;;;;;;;;10396306;28;20050;-77
2023/01/30 18:37:46;;;;;;;7.03;4.88;;;;;;;;;;10389371;28;20050;-78
2023/01/30 18:42:46;;;;;;;6.57;4.88;;;;;;;;;;10374920;28;20072;-77
2023/01/30 18:47:47;;;;;;;11.50;4.40;;;;;;;;;;10385272;28;20037;-76
2023/01/30 18:52:49;;;;;;;7.40;4.88;;;;;;;;;;10392461;28;20049;-74
2023/01/30 18:57:50;;;;;;;7.22;4.60;;;;;;;;;;10397178;28;20045;-77
2023/01/30 19:02:51;;;;;;;5.38;4.28;;;;;;;;;;10402795;28;20068;-76
2023/01/30 19:07:52;;;;;;;7.50;4.10;;;;;;;;;;10405899;28;20046;-74
2023/01/30 19:18:11;;;;;;;7.47;4.70;;;;;;;;;;10392564;28;20052;-77
2023/01/30 19:23:11;;;;;;;7.93;5.03;;;;;;;;;;10396001;28;20482;-75
2023/01/30 19:28:12;;;;;;;8.70;4.47;;;;;;;;;;10377510;28;20050;-78
2023/01/30 19:33:13;;;;;;;9.30;4.90;;;;;;;;;;10395951;28;20044;-75
2023/01/30 19:38:14;;;;;;;6.88;4.82;;;;;;;;;;10379938;28;20045;-79
2023/01/30 19:43:14;;;;;;;10.52;5.63;;;;;;;;;;10395458;28;20045;-76
2023/01/30 19:48:15;;;;;;;9.50;5.60;;;;;;;;;;10394613;28;20046;-79
2023/01/30 19:53:15;;;;;;;10.43;5.40;;;;;;;;;;10390619;28;20305;-75
2023/01/30 19:58:15;;;;;;;10.20;5.80;;;;;;;;;;10392560;28;20300;-76
2023/01/30 20:03:16;;;;;;;11.77;6.18;;;;;;;;;;10380697;28;20044;-75
2023/01/30 20:08:16;;;;;;;9.20;6.15;;;;;;;;;;10386183;28;20389;-77
2023/01/30 20:13:16;;;;;;;10.90;6.37;;;;;;;;;;10388625;28;20123;-76
2023/01/30 20:18:17;;;;;;;8.88;6.63;;;;;;;;;;10364631;28;20314;-75
2023/01/30 20:23:18;;;;;;;12.20;6.67;;;;;;;;;;10392171;28;20213;-76
2023/01/30 20:28:18;;;;;;;14.70;7.20;;;;;;;;;;10387403;28;20311;-76
2023/01/30 20:33:19;;;;;;;10.85;6.75;;;;;;;;;;10380632;28;20040;-78
2023/01/30 20:38:19;;;;;;;11.88;6.53;;;;;;;;;;10379549;28;20044;-76
2023/01/30 20:43:20;;;;;;;11.27;6.72;;;;;;;;;;10381341;28;20098;-78
2023/01/30 20:48:20;;;;;;;11.35;7.30;;;;;;;;;;10393804;28;20048;-76
2023/01/30 20:53:20;;;;;;;11.73;7.07;;;;;;;;;;10386261;28;20045;-78
2023/01/30 20:58:21;;;;;;;11.57;6.70;;;;;;;;;;10392511;28;20272;-77
2023/01/30 21:03:24;;;;;;;11.20;6.78;;;;;;;;;;10415679;28;20409;-78
2023/01/30 21:08:25;;;;;;;11.10;6.90;;;;;;;;;;10394215;28;20053;-75
2023/01/30 21:13:25;;;;;;;10.20;6.65;;;;;;;;;;10400110;28;20592;-78
2023/01/30 21:18:28;;;;;;;12.20;7.27;;;;;;;;;;10390041;28;20045;-78
2023/01/30 21:23:28;;;;;;;10.18;6.07;;;;;;;;;;10401321;28;20283;-78
2023/01/30 21:28:30;;;;;;;9.27;6.50;;;;;;;;;;10409919;28;20052;-79
2023/01/30 21:33:31;;;;;;;9.55;7.13;;;;;;;;;;10397324;28;20045;-78
2023/01/30 21:43:50;;;;;;;12.50;6.32;;;;;;;;;;10389219;28;20049;-75
2023/01/30 21:48:52;;;;;;;18.17;7.15;;;;;;;;;;10397543;28;20054;-78
2023/01/30 21:53:53;;;;;;;11.52;6.53;;;;;;;;;;10415893;28;20037;-75
2023/01/30 21:58:54;;;;;;;14.27;6.18;;;;;;;;;;10392278;28;20485;-77
2023/01/30 22:03:57;;;;;;;12.52;5.90;;;;;;;;;;10393185;28;20075;-76
2023/01/30 22:09:00;;;;;;;8.90;6.07;;;;;;;;;;10410364;28;20163;-82
2023/01/30 22:14:00;;;;;;;14.77;6.30;;;;;;;;;;10434913;28;20045;-78
2023/01/30 22:19:01;;;;;;;10.67;5.70;;;;;;;;;;10422776;28;20490;-76
2023/01/30 22:24:04;;;;;;;10.20;5.85;;;;;;;;;;10396200;28;20284;-74
2023/01/30 22:29:05;;;;;;;11.05;5.80;;;;;;;;;;10374178;28;20049;-75
2023/01/30 22:34:10;;;;;;;9.95;5.50;;;;;;;;;;10417065;28;20409;-77
2023/01/30 22:39:10;;;;;;;11.38;5.97;;;;;;;;;;10421562;28;20402;-75
2023/01/30 22:44:10;;;;;;;9.02;5.68;;;;;;;;;;10398481;28;20051;-80
2023/01/30 22:49:11;;;;;;;11.07;6.00;;;;;;;;;;10364464;28;20116;-75
2023/01/30 22:54:15;;;;;;;11.18;6.15;;;;;;;;;;10390846;28;20034;-74
2023/01/30 22:59:17;;;;;;;15.18;6.18;;;;;;;;;;10359752;28;20037;-75
2023/01/30 23:04:19;;;;;;;12.30;5.97;;;;;;;;;;10376343;28;20145;-75
2023/01/30 23:14:35;;;;;;;9.23;5.40;;;;;;;;;;10382159;28;20041;-76
2023/01/30 23:19:35;;;;;;;9.65;5.97;;;;;;;;;;10395898;28;20080;-76
2023/01/30 23:24:35;;;;;;;14.07;7.83;;;;;;;;;;10401731;28;20057;-80
2023/01/30 23:29:36;;;;;;;12.50;6.55;;;;;;;;;;10395345;28;20656;-78
2023/01/30 23:34:36;;;;;;;10.82;6.40;;;;;;;;;;10375001;28;20459;-77
2023/01/30 23:39:37;;;;;;;9.80;5.57;;;;;;;;;;10384989;28;20098;-76
2023/01/30 23:44:38;;;;;;;11.23;5.90;;;;;;;;;;10390416;28;20037;-74
2023/01/30 23:49:39;;;;;;;13.13;6.40;;;;;;;;;;10396346;28;20060;-74
2023/01/30 23:54:40;;;;;;;13.32;6.10;;;;;;;;;;10393414;28;20055;-75
2023/01/30 23:59:42;;;;;;;19.85;7.18;;;;;;;;;;10404892;28;20778;-78
